Time;durP1;ratioP1;P1;durP2;ratioP2;P2;SDS_P1;SDS_P2;PMS_P1;PMS_P2;Temp;Humidity;BMP_temperature;BMP_pressure;BME280_temperature;BME280_humidity;BME280_pressure;Samples;Min_cycle;Max_cycle;Signal;HPM_P1;HPM_P2
2022/04/05 00:02:26;;;;;;;0.70;0.70;;;;;;;9.34;100.00;95195.34;5093990;28;20824;-54
2022/04/05 00:04:55;;;;;;;0.30;0.20;;;;;;;8.89;100.00;95190.81;5093780;28;20477;-54
2022/04/05 00:07:23;;;;;;;0.30;0.20;;;;;;;9.29;100.00;95191.91;5093474;28;20425;-55
2022/04/05 00:09:52;;;;;;;0.40;0.30;;;;;;;9.41;100.00;95189.81;5092737;28;20498;-55
2022/04/05 00:12:21;;;;;;;0.73;0.73;;;;;;;9.03;100.00;95190.31;5093448;28;20901;-55
2022/04/05 00:14:51;;;;;;;0.30;0.20;;;;;;;9.48;100.00;95193.00;5093292;28;20524;-55
2022/04/05 00:17:19;;;;;;;0.30;0.20;;;;;;;9.53;100.00;95195.63;5093029;28;20468;-55
2022/04/05 00:19:47;;;;;;;0.30;0.20;;;;;;;9.30;100.00;95191.66;5093260;28;20516;-55
2022/04/05 00:22:16;;;;;;;0.30;0.20;;;;;;;8.72;100.00;95192.88;5093465;28;20870;-55
2022/04/05 00:24:44;;;;;;;0.63;0.63;;;;;;;8.84;100.00;95188.16;5093080;28;20428;-54
2022/04/05 00:27:13;;;;;;;0.50;0.50;;;;;;;8.81;100.00;95188.66;5093046;28;20475;-55
2022/04/05 00:29:41;;;;;;;0.40;0.30;;;;;;;8.85;100.00;95189.72;5093019;28;20472;-54
2022/04/05 00:32:11;;;;;;;0.50;0.40;;;;;;;9.02;100.00;95189.50;5093065;28;20973;-55
2022/04/05 00:34:39;;;;;;;0.30;0.30;;;;;;;9.34;100.00;95162.81;5093152;28;20432;-54
2022/04/05 00:37:08;;;;;;;0.40;0.30;;;;;;;9.84;100.00;95180.53;5092885;28;20782;-54
2022/04/05 00:39:37;;;;;;;0.30;0.20;;;;;;;10.04;100.00;95183.91;5093108;28;20505;-54
2022/04/05 00:42:09;;;;;;;0.30;0.20;;;;;;;10.19;100.00;95180.47;5093009;28;20589;-55
2022/04/05 00:44:38;;;;;;;0.30;0.20;;;;;;;10.14;100.00;95164.59;5092755;28;20429;-55
2022/04/05 00:47:16;;;;;;;0.30;0.20;;;;;;;9.55;100.00;95167.06;5092643;28;20460;-55
2022/04/05 00:49:45;;;;;;;0.30;0.20;;;;;;;9.25;100.00;95156.47;5092639;28;20465;-55
2022/04/05 00:52:15;;;;;;;0.30;0.20;;;;;;;9.61;100.00;95166.00;5092707;28;20424;-54
2022/04/05 00:54:46;;;;;;;0.30;0.20;;;;;;;9.51;100.00;95158.84;5092565;28;20456;-55
2022/04/05 00:57:18;;;;;;;0.30;0.20;;;;;;;9.59;100.00;95150.38;5092781;28;20490;-55
2022/04/05 00:59:48;;;;;;;0.30;0.20;;;;;;;9.42;100.00;95157.00;5092437;28;20472;-54
2022/04/05 01:02:20;;;;;;;0.40;0.40;;;;;;;9.48;100.00;95148.81;5092669;28;20432;-55
2022/04/05 01:04:48;;;;;;;0.30;0.20;;;;;;;9.64;100.00;95138.22;5092366;28;20477;-55
2022/04/05 01:07:19;;;;;;;0.30;0.20;;;;;;;9.87;100.00;95143.72;5092404;28;20463;-55
2022/04/05 01:09:48;;;;;;;0.30;0.20;;;;;;;9.98;100.00;95139.19;5092197;28;20471;-55
2022/04/05 01:12:16;;;;;;;0.43;0.43;;;;;;;10.11;100.00;95134.13;5092375;28;20524;-55
2022/04/05 01:14:44;;;;;;;0.30;0.30;;;;;;;9.75;100.00;95137.91;5091711;28;20508;-54
2022/04/05 01:17:14;;;;;;;0.30;0.20;;;;;;;9.76;100.00;95134.22;5092260;28;20424;-54
2022/04/05 01:19:46;;;;;;;0.40;0.30;;;;;;;8.89;100.00;95055.22;5092083;28;20529;-54
2022/04/05 01:22:16;;;;;;;0.50;0.47;;;;;;;9.38;100.00;95135.59;5092090;28;20517;-54
2022/04/05 01:24:45;;;;;;;0.30;0.20;;;;;;;9.71;100.00;95128.13;5092319;28;20489;-55
2022/04/05 01:27:17;;;;;;;0.40;0.37;;;;;;;9.75;100.00;95121.25;5092074;28;20462;-55
2022/04/05 01:29:47;;;;;;;0.30;0.30;;;;;;;9.77;100.00;95138.44;5092196;28;20468;-54
2022/04/05 01:32:15;;;;;;;0.40;0.30;;;;;;;9.50;100.00;95125.53;5091937;28;20432;-54
2022/04/05 01:34:44;;;;;;;0.73;0.30;;;;;;;9.09;100.00;95131.88;5092384;28;20428;-55
2022/04/05 01:37:12;;;;;;;0.30;0.20;;;;;;;8.61;100.00;95125.22;5091952;28;20809;-55
2022/04/05 01:39:43;;;;;;;0.50;0.40;;;;;;;8.54;100.00;95129.97;5092275;28;20459;-55
2022/04/05 01:42:16;;;;;;;0.50;0.40;;;;;;;8.60;100.00;95126.25;5092279;28;20506;-55
2022/04/05 01:44:45;;;;;;;0.30;0.30;;;;;;;8.54;100.00;95082.41;5091956;28;20428;-55
2022/04/05 01:47:15;;;;;;;0.30;0.20;;;;;;;8.71;100.00;95130.53;5092201;28;20493;-54
2022/04/05 01:49:45;;;;;;;0.30;0.20;;;;;;;8.68;100.00;95130.25;5092216;28;20478;-54
2022/04/05 01:52:14;;;;;;;0.43;0.40;;;;;;;8.76;100.00;95122.59;5091786;28;20464;-54
2022/04/05 01:54:42;;;;;;;0.30;0.20;;;;;;;8.69;100.00;95132.63;5091789;28;20433;-54
2022/04/05 01:57:10;;;;;;;0.30;0.20;;;;;;;8.77;100.00;95129.50;5091771;28;20421;-54
2022/04/05 01:59:42;;;;;;;0.50;0.50;;;;;;;8.31;100.00;95072.34;5091729;28;20529;-54
2022/04/05 02:02:11;;;;;;;0.30;0.20;;;;;;;8.69;100.00;95137.13;5091778;28;20917;-54
2022/04/05 02:04:40;;;;;;;0.40;0.30;;;;;;;8.65;100.00;95130.78;5091601;28;20439;-54
2022/04/05 02:07:11;;;;;;;0.30;0.20;;;;;;;8.24;100.00;95077.03;5092084;28;20420;-54
2022/04/05 02:09:39;;;;;;;0.40;0.30;;;;;;;8.84;100.00;95129.22;5091532;28;20539;-54
2022/04/05 02:12:09;;;;;;;0.30;0.20;;;;;;;8.84;100.00;95127.38;5091895;28;20467;-55
2022/04/05 02:14:40;;;;;;;0.30;0.20;;;;;;;8.92;100.00;95128.69;5092017;28;20454;-55
2022/04/05 02:17:09;;;;;;;0.30;0.20;;;;;;;9.07;100.00;95120.78;5095664;28;20436;-54
2022/04/05 02:19:38;;;;;;;0.30;0.20;;;;;;;9.13;100.00;95127.66;5095447;28;20472;-54
2022/04/05 02:22:07;;;;;;;0.40;0.40;;;;;;;9.28;100.00;95122.38;5095011;28;20446;-54
2022/04/05 02:24:35;;;;;;;0.30;0.20;;;;;;;9.43;100.00;95118.91;5095730;28;20463;-54
2022/04/05 02:27:04;;;;;;;0.43;0.30;;;;;;;9.17;100.00;95122.63;5095813;28;20452;-54
2022/04/05 02:29:32;;;;;;;0.30;0.23;;;;;;;8.32;100.00;94937.41;5095385;28;20497;-54
2022/04/05 02:32:02;;;;;;;4.37;0.67;;;;;;;9.17;100.00;95118.13;5095401;28;20452;-54
2022/04/05 02:34:30;;;;;;;0.30;0.20;;;;;;;8.99;100.00;95117.84;5095239;28;20460;-54
2022/04/05 02:36:58;;;;;;;0.30;0.30;;;;;;;9.11;100.00;95121.06;5095198;28;20735;-54
2022/04/05 02:39:27;;;;;;;0.30;0.20;;;;;;;9.09;100.00;95115.22;5095105;28;20960;-54
2022/04/05 02:41:55;;;;;;;0.40;0.30;;;;;;;9.29;100.00;95107.28;5095203;28;20456;-54
2022/04/05 02:44:24;;;;;;;0.60;0.57;;;;;;;9.25;100.00;95100.94;5095254;28;20417;-54
2022/04/05 02:46:52;;;;;;;0.30;0.20;;;;;;;9.26;100.00;95110.47;5095379;28;20752;-54
2022/04/05 02:49:22;;;;;;;0.30;0.20;;;;;;;9.04;100.00;95109.94;5094715;28;20460;-54
2022/04/05 02:51:50;;;;;;;0.30;0.20;;;;;;;9.06;100.00;95113.13;5094649;28;20486;-54
2022/04/05 02:54:19;;;;;;;0.30;0.20;;;;;;;9.23;100.00;95111.00;5095208;28;20428;-54
2022/04/05 02:56:47;;;;;;;0.30;0.20;;;;;;;9.13;100.00;95106.53;5095139;28;20432;-54
2022/04/05 02:59:16;;;;;;;0.30;0.20;;;;;;;8.97;100.00;95107.56;5094558;28;20975;-54
2022/04/05 03:01:44;;;;;;;0.30;0.20;;;;;;;9.09;100.00;95079.00;5094653;28;20464;-54
2022/04/05 03:04:13;;;;;;;0.30;0.20;;;;;;;9.55;100.00;95107.00;5094823;28;20437;-53
2022/04/05 03:06:43;;;;;;;0.97;0.30;;;;;;;9.30;100.00;95091.16;5094917;28;20433;-53
2022/04/05 03:09:12;;;;;;;0.30;0.20;;;;;;;9.46;100.00;95099.88;5094110;28;20578;-54
2022/04/05 03:11:40;;;;;;;0.30;0.20;;;;;;;9.59;100.00;95094.00;5094231;28;20527;-54
2022/04/05 03:14:10;;;;;;;0.30;0.20;;;;;;;9.72;100.00;95090.81;5094332;28;20428;-54
2022/04/05 03:16:39;;;;;;;0.30;0.20;;;;;;;9.66;100.00;95083.16;5094443;28;20463;-53
2022/04/05 03:19:08;;;;;;;0.40;0.30;;;;;;;9.28;100.00;95029.81;5094625;28;20932;-54
2022/04/05 03:21:36;;;;;;;0.60;0.30;;;;;;;9.68;100.00;95081.84;5094280;28;21015;-54
2022/04/05 03:24:07;;;;;;;0.30;0.20;;;;;;;9.05;100.00;95085.09;5094584;28;20429;-54
2022/04/05 03:26:35;;;;;;;0.30;0.20;;;;;;;8.52;100.00;95094.28;5092828;28;20432;-53
2022/04/05 03:29:03;;;;;;;0.30;0.20;;;;;;;8.90;100.00;95091.94;5094299;28;20955;-54
2022/04/05 03:31:32;;;;;;;0.30;0.20;;;;;;;8.73;100.00;95091.41;5094143;28;20429;-53
2022/04/05 03:34:00;;;;;;;0.30;0.20;;;;;;;8.88;100.00;95093.28;5094140;28;20456;-53
2022/04/05 03:36:29;;;;;;;0.30;0.20;;;;;;;9.20;100.00;95090.38;5094317;28;20489;-53
2022/04/05 03:38:57;;;;;;;0.30;0.20;;;;;;;9.27;100.00;95089.06;5093245;28;20510;-53
2022/04/05 03:41:27;;;;;;;0.30;0.30;;;;;;;9.03;100.00;95088.00;5094034;28;20464;-53
2022/04/05 03:43:55;;;;;;;0.40;0.30;;;;;;;8.94;100.00;95097.50;5094034;28;20452;-53
2022/04/05 03:46:23;;;;;;;0.30;0.20;;;;;;;9.35;100.00;95085.06;5093785;28;20949;-54
2022/04/05 03:48:52;;;;;;;0.30;0.20;;;;;;;8.89;100.00;95094.88;5094214;28;20429;-53
2022/04/05 03:51:21;;;;;;;0.40;0.40;;;;;;;8.73;100.00;95096.69;5093991;28;20489;-53
2022/04/05 03:53:49;;;;;;;0.40;0.30;;;;;;;8.91;100.00;95098.03;5093596;28;20460;-54
2022/04/05 03:56:19;;;;;;;0.93;0.57;;;;;;;8.87;100.00;95092.50;5093783;28;20482;-54
2022/04/05 03:58:49;;;;;;;1.37;1.37;;;;;;;8.71;100.00;95098.00;5093759;28;20425;-54
2022/04/05 04:01:17;;;;;;;1.70;0.40;;;;;;;8.80;100.00;95102.50;5093974;28;20578;-53
2022/04/05 04:03:46;;;;;;;0.30;0.20;;;;;;;8.70;100.00;95097.22;5093605;28;20438;-54
2022/04/05 04:06:14;;;;;;;1.30;1.27;;;;;;;8.62;100.00;95100.41;5093699;28;20425;-54
2022/04/05 04:08:43;;;;;;;0.30;0.20;;;;;;;8.99;100.00;95105.44;5093393;28;20457;-55
2022/04/05 04:11:11;;;;;;;0.30;0.20;;;;;;;9.30;100.00;95091.16;5093853;28;20474;-54
2022/04/05 04:13:39;;;;;;;0.40;0.20;;;;;;;9.38;100.00;95097.78;5093512;28;21061;-54
2022/04/05 04:16:09;;;;;;;8.40;0.83;;;;;;;9.37;100.00;95098.81;5093500;28;20449;-54
2022/04/05 04:18:37;;;;;;;0.67;0.67;;;;;;;9.57;100.00;95109.38;5093378;28;20493;-54
2022/04/05 04:21:06;;;;;;;1.00;1.00;;;;;;;9.19;100.00;95108.09;5093573;28;20854;-54
2022/04/05 04:23:34;;;;;;;1.97;1.70;;;;;;;9.37;100.00;95101.47;5093374;28;20984;-54
2022/04/05 04:26:04;;;;;;;0.30;0.20;;;;;;;9.30;100.00;95093.00;5093197;28;20832;-54
2022/04/05 04:28:33;;;;;;;0.50;0.30;;;;;;;9.40;100.00;95100.94;5093198;28;20535;-54
2022/04/05 04:31:01;;;;;;;0.50;0.50;;;;;;;9.38;100.00;95090.63;5093094;28;20464;-54
2022/04/05 04:33:31;;;;;;;0.40;0.30;;;;;;;9.34;100.00;95091.41;5093146;28;20813;-54
2022/04/05 04:36:00;;;;;;;0.30;0.20;;;;;;;8.88;100.00;95094.06;5093063;28;20507;-54
2022/04/05 04:38:29;;;;;;;0.40;0.30;;;;;;;9.20;100.00;95095.66;5092855;28;20432;-54
2022/04/05 04:40:58;;;;;;;0.60;0.60;;;;;;;9.44;100.00;95097.47;5092750;28;20558;-54
2022/04/05 04:43:27;;;;;;;0.30;0.20;;;;;;;9.26;100.00;95090.09;5093034;28;21000;-54
2022/04/05 04:46:01;;;;;;;0.67;0.67;;;;;;;9.10;100.00;95106.25;5092526;28;20432;-55
2022/04/05 04:48:31;;;;;;;0.40;0.20;;;;;;;9.07;100.00;95097.00;5093255;28;20443;-54
2022/04/05 04:50:59;;;;;;;0.30;0.20;;;;;;;8.82;100.00;95099.63;5092686;28;20520;-54
2022/04/05 04:53:28;;;;;;;0.30;0.20;;;;;;;8.65;100.00;95099.09;5093005;28;20474;-54
2022/04/05 04:55:56;;;;;;;0.30;0.30;;;;;;;7.98;100.00;95027.84;5092695;28;20500;-54
2022/04/05 04:58:36;;;;;;;0.30;0.30;;;;;;;8.13;100.00;95096.53;5091879;28;20427;-53
2022/04/05 05:01:05;;;;;;;0.50;0.50;;;;;;;8.33;100.00;95093.97;5092702;28;20541;-53
2022/04/05 05:03:35;;;;;;;0.30;0.20;;;;;;;8.14;100.00;95084.94;5091514;28;20543;-55
2022/04/05 05:06:04;;;;;;;0.40;0.40;;;;;;;8.46;100.00;95101.41;5091882;28;20501;-54
2022/04/05 05:08:33;;;;;;;0.50;0.30;;;;;;;8.22;100.00;95097.63;5091997;28;20515;-54
2022/04/05 05:11:02;;;;;;;1.07;1.07;;;;;;;8.19;100.00;95090.22;5092205;28;20522;-54
2022/04/05 05:13:31;;;;;;;0.40;0.20;;;;;;;8.38;100.00;95101.91;5092691;28;20445;-52
2022/04/05 05:16:00;;;;;;;0.30;0.20;;;;;;;8.89;100.00;95114.16;5092053;28;20522;-54
2022/04/05 05:18:29;;;;;;;0.40;0.30;;;;;;;8.92;100.00;95111.00;5091231;28;20428;-54
2022/04/05 05:20:59;;;;;;;0.47;0.30;;;;;;;8.81;100.00;95113.88;5092156;28;20558;-54
2022/04/05 05:23:28;;;;;;;0.40;0.20;;;;;;;8.93;100.00;95109.94;5091807;28;20444;-54
2022/04/05 05:25:56;;;;;;;0.40;0.33;;;;;;;8.43;100.00;95109.06;5092002;28;20909;-53
2022/04/05 05:28:25;;;;;;;2.10;1.03;;;;;;;8.26;100.00;95117.16;5091389;28;20432;-53
2022/04/05 05:30:53;;;;;;;0.37;0.33;;;;;;;8.40;100.00;95120.94;5092005;28;20432;-53
2022/04/05 05:33:22;;;;;;;4.20;1.93;;;;;;;8.24;100.00;95116.63;5092273;28;20429;-53
2022/04/05 05:35:50;;;;;;;0.53;0.40;;;;;;;8.36;100.00;95121.72;5092171;28;20913;-53
2022/04/05 05:38:20;;;;;;;2.50;2.40;;;;;;;7.97;100.00;95126.56;5092019;28;20478;-53
2022/04/05 05:40:49;;;;;;;0.77;0.77;;;;;;;7.94;100.00;95124.44;5092058;28;20468;-54
2022/04/05 05:43:17;;;;;;;0.60;0.60;;;;;;;8.09;100.00;95116.59;5091949;28;20511;-53
2022/04/05 05:45:46;;;;;;;1.13;1.13;;;;;;;8.35;100.00;95125.41;5092193;28;20475;-54
2022/04/05 05:48:14;;;;;;;0.30;0.30;;;;;;;8.42;100.00;95121.47;5091922;28;20942;-54
2022/04/05 05:50:43;;;;;;;0.47;0.30;;;;;;;8.57;100.00;95116.25;5091196;28;20471;-54
2022/04/05 05:53:11;;;;;;;0.30;0.20;;;;;;;8.14;100.00;95104.19;5092144;28;20436;-54
2022/04/05 05:55:41;;;;;;;0.30;0.30;;;;;;;8.46;100.00;95111.97;5091909;28;20472;-54
2022/04/05 05:58:09;;;;;;;0.97;0.93;;;;;;;8.80;100.00;95118.38;5092147;28;20577;-54
2022/04/05 06:00:38;;;;;;;0.30;0.20;;;;;;;8.35;100.00;95107.72;5091742;28;20532;-54
2022/04/05 06:03:06;;;;;;;0.30;0.20;;;;;;;8.48;100.00;95120.44;5091739;28;20523;-54
2022/04/05 06:05:36;;;;;;;0.40;0.30;;;;;;;8.44;100.00;95119.38;5091723;28;20427;-53
2022/04/05 06:08:05;;;;;;;0.83;0.83;;;;;;;8.67;100.00;95115.47;5091233;28;20786;-54
2022/04/05 06:10:33;;;;;;;0.40;0.30;;;;;;;8.74;100.00;95116.00;5091092;28;20500;-54
2022/04/05 06:13:04;;;;;;;0.30;0.20;;;;;;;8.69;100.00;95093.00;5091815;28;20501;-54
2022/04/05 06:15:33;;;;;;;0.30;0.20;;;;;;;8.93;100.00;95106.47;5091259;28;20428;-54
2022/04/05 06:18:01;;;;;;;0.47;0.43;;;;;;;8.89;100.00;95111.53;5091538;28;20420;-53
2022/04/05 06:20:29;;;;;;;0.30;0.20;;;;;;;9.05;100.00;95106.25;5090936;28;20528;-53
2022/04/05 06:23:00;;;;;;;0.30;0.20;;;;;;;9.27;100.00;95114.69;5091296;28;20436;-54
2022/04/05 06:25:30;;;;;;;0.30;0.20;;;;;;;9.28;100.00;95113.66;5091404;28;20842;-53
2022/04/05 06:28:02;;;;;;;0.30;0.20;;;;;;;9.06;100.00;95108.59;5091611;28;20485;-54
2022/04/05 06:30:33;;;;;;;0.30;0.20;;;;;;;9.03;100.00;95048.38;5091380;28;20466;-54
2022/04/05 06:33:06;;;;;;;0.30;0.20;;;;;;;9.28;100.00;95095.94;5090620;28;20433;-53
2022/04/05 06:35:35;;;;;;;0.30;0.20;;;;;;;9.18;100.00;95106.53;5090705;28;20456;-53
2022/04/05 06:38:03;;;;;;;0.40;0.30;;;;;;;9.00;100.00;95108.88;5091018;28;20594;-53
2022/04/05 06:40:32;;;;;;;0.30;0.20;;;;;;;9.01;100.00;95089.31;5091275;28;20932;-54
2022/04/05 06:43:01;;;;;;;0.30;0.20;;;;;;;9.41;100.00;95100.66;5091173;28;20429;-53
2022/04/05 06:45:31;;;;;;;0.40;0.30;;;;;;;9.22;100.00;95046.75;5091153;28;21100;-54
2022/04/05 06:48:00;;;;;;;0.30;0.20;;;;;;;9.48;100.00;95095.91;5091019;28;20432;-53
2022/04/05 06:50:29;;;;;;;0.30;0.20;;;;;;;9.79;100.00;95101.13;5090734;28;20821;-53
2022/04/05 06:52:59;;;;;;;0.40;0.30;;;;;;;10.09;100.00;95085.16;5091197;28;20588;-52
2022/04/05 06:55:28;;;;;;;0.30;0.20;;;;;;;9.76;100.00;95089.22;5090909;28;20480;-52
2022/04/05 06:57:57;;;;;;;0.40;0.30;;;;;;;9.81;100.00;95094.50;5090489;28;20471;-52
2022/04/05 07:00:25;;;;;;;0.37;0.27;;;;;;;9.85;100.00;95097.38;5090900;28;20428;-52
2022/04/05 07:02:57;;;;;;;0.53;0.53;;;;;;;9.77;100.00;95093.44;5094958;28;20500;-52
2022/04/05 07:05:27;;;;;;;0.30;0.20;;;;;;;8.89;100.00;94978.59;5094608;28;20475;-52
2022/04/05 07:07:56;;;;;;;3.53;1.53;;;;;;;9.68;100.00;95092.41;5094698;28;20913;-53
2022/04/05 07:10:25;;;;;;;0.30;0.30;;;;;;;9.84;100.00;95093.94;5093507;28;20915;-53
2022/04/05 07:12:53;;;;;;;1.47;1.40;;;;;;;9.68;100.00;95100.34;5094121;28;20490;-53
2022/04/05 07:15:22;;;;;;;0.40;0.30;;;;;;;9.52;100.00;95104.88;5094336;28;20482;-53
2022/04/05 07:17:51;;;;;;;0.37;0.27;;;;;;;9.47;100.00;95112.03;5094436;28;20466;-53
2022/04/05 07:20:37;;;;;;;1.57;0.43;;;;;;;9.73;100.00;95108.28;5094427;28;20472;-53
2022/04/05 07:23:06;;;;;;;0.30;0.20;;;;;;;9.80;100.00;95108.78;5093657;28;20424;-53
2022/04/05 07:25:35;;;;;;;2.53;2.43;;;;;;;10.37;100.00;95105.72;5094167;28;20464;-53
2022/04/05 07:28:04;;;;;;;0.50;0.40;;;;;;;10.42;100.00;95102.25;5094214;28;20425;-53
2022/04/05 07:30:33;;;;;;;3.13;0.97;;;;;;;10.06;100.00;95101.56;5094230;28;20811;-53
2022/04/05 07:33:01;;;;;;;1.07;1.07;;;;;;;10.55;100.00;95110.34;5093856;28;20421;-53
2022/04/05 07:35:30;;;;;;;1.80;1.80;;;;;;;10.53;100.00;95107.19;5093687;28;20443;-53
2022/04/05 07:38:00;;;;;;;0.57;0.50;;;;;;;10.86;100.00;95113.63;5094203;28;20452;-53
2022/04/05 07:40:47;;;;;;;0.37;0.30;;;;;;;10.55;100.00;95117.53;5093159;28;20464;-53
2022/04/05 07:43:18;;;;;;;2.10;1.13;;;;;;;10.65;100.00;95106.88;5094156;28;20433;-53
2022/04/05 07:45:48;;;;;;;0.30;0.20;;;;;;;10.91;100.00;95112.78;5093918;28;20764;-53
2022/04/05 07:48:18;;;;;;;0.50;0.30;;;;;;;10.95;100.00;95116.50;5093522;28;20490;-53
2022/04/05 07:50:47;;;;;;;0.40;0.40;;;;;;;10.08;100.00;95107.38;5093104;28;20429;-54
2022/04/05 07:53:17;;;;;;;0.40;0.40;;;;;;;10.52;100.00;95123.38;5093584;28;21119;-54
2022/04/05 07:55:47;;;;;;;1.13;0.30;;;;;;;10.92;100.00;95130.28;5093491;28;20513;-54
2022/04/05 07:58:15;;;;;;;0.50;0.50;;;;;;;10.58;100.00;95119.63;5092831;28;20511;-54
2022/04/05 08:00:43;;;;;;;0.37;0.27;;;;;;;10.69;100.00;95119.31;5093067;28;20512;-54
2022/04/05 08:03:12;;;;;;;0.50;0.50;;;;;;;10.89;100.00;95114.94;5092448;28;20573;-54
2022/04/05 08:05:41;;;;;;;0.47;0.47;;;;;;;11.08;100.00;95127.25;5093219;28;20432;-54
2022/04/05 08:08:10;;;;;;;0.40;0.33;;;;;;;10.97;100.00;95114.34;5093446;28;20476;-54
2022/04/05 08:11:00;;;;;;;0.70;0.70;;;;;;;10.89;100.00;95109.63;5092578;28;20463;-53
2022/04/05 08:13:28;;;;;;;0.40;0.33;;;;;;;10.86;100.00;95113.63;5092222;28;20474;-53
2022/04/05 08:15:57;;;;;;;0.87;0.87;;;;;;;11.49;100.00;95109.94;5093288;28;20985;-53
2022/04/05 08:18:25;;;;;;;0.40;0.30;;;;;;;11.38;100.00;95105.78;5093088;28;20429;-54
2022/04/05 08:20:54;;;;;;;2.67;0.83;;;;;;;11.45;100.00;95100.97;5093572;28;20542;-53
2022/04/05 08:23:23;;;;;;;0.40;0.40;;;;;;;11.45;100.00;95103.63;5093082;28;20617;-52
2022/04/05 08:25:52;;;;;;;0.40;0.40;;;;;;;11.19;100.00;95106.75;5092776;28;20510;-53
2022/04/05 08:28:22;;;;;;;0.50;0.50;;;;;;;11.66;100.00;95109.53;5093082;28;20437;-54
2022/04/05 08:30:51;;;;;;;0.30;0.20;;;;;;;11.76;100.00;95101.50;5093253;28;20436;-53
2022/04/05 08:33:19;;;;;;;0.50;0.50;;;;;;;11.98;100.00;95101.78;5093422;28;20421;-53
2022/04/05 08:35:48;;;;;;;0.50;0.40;;;;;;;11.34;100.00;95080.09;5092943;28;20928;-53
2022/04/05 08:38:17;;;;;;;1.10;0.53;;;;;;;10.57;100.00;95096.84;5092028;28;20462;-53
2022/04/05 08:40:45;;;;;;;0.50;0.47;;;;;;;10.73;100.00;95099.13;5093190;28;20887;-52
2022/04/05 08:43:14;;;;;;;0.40;0.30;;;;;;;11.09;100.00;95078.44;5092793;28;20503;-53
2022/04/05 08:45:56;;;;;;;0.50;0.50;;;;;;;11.52;100.00;95095.31;5092804;28;20611;-53
2022/04/05 08:48:27;;;;;;;0.40;0.33;;;;;;;10.91;100.00;95010.19;5092442;28;20969;-53
2022/04/05 08:50:58;;;;;;;0.50;0.50;;;;;;;11.19;100.00;95090.84;5092640;28;20947;-53
2022/04/05 08:53:28;;;;;;;1.37;0.60;;;;;;;11.27;100.00;95091.03;5092759;28;20511;-53
2022/04/05 08:55:57;;;;;;;0.77;0.77;;;;;;;10.57;100.00;95094.19;5092558;28;20932;-53
2022/04/05 08:58:25;;;;;;;0.50;0.40;;;;;;;11.10;100.00;95047.41;5092437;28;20431;-52
2022/04/05 09:00:55;;;;;;;0.40;0.40;;;;;;;10.70;100.00;95083.00;5092199;28;20456;-54
2022/04/05 09:03:24;;;;;;;2.00;0.67;;;;;;;11.25;100.00;95077.28;5092619;28;20476;-53
2022/04/05 09:05:53;;;;;;;0.73;0.73;;;;;;;11.70;100.00;95077.91;5092062;28;20435;-53
2022/04/05 09:08:24;;;;;;;0.40;0.40;;;;;;;11.26;100.00;95089.44;5092186;28;20468;-53
2022/04/05 09:10:54;;;;;;;1.03;1.03;;;;;;;11.23;100.00;95092.66;5091755;28;20480;-53
2022/04/05 09:13:25;;;;;;;1.80;0.50;;;;;;;11.23;100.00;95099.84;5091816;28;20432;-53
2022/04/05 09:15:58;;;;;;;1.57;0.67;;;;;;;11.27;100.00;95083.06;5092139;28;20416;-53
2022/04/05 09:18:35;;;;;;;0.40;0.30;;;;;;;11.04;100.00;95059.94;5092014;28;20427;-53
2022/04/05 09:21:05;;;;;;;0.40;0.30;;;;;;;11.24;100.00;95073.03;5092436;28;20466;-53
2022/04/05 09:23:38;;;;;;;0.87;0.87;;;;;;;11.45;100.00;95084.25;5091781;28;20464;-53
2022/04/05 09:26:09;;;;;;;0.73;0.73;;;;;;;11.23;100.00;95081.28;5091896;28;20455;-53
2022/04/05 09:28:39;;;;;;;0.50;0.50;;;;;;;10.38;100.00;95070.19;5091870;28;20493;-53
2022/04/05 09:31:11;;;;;;;0.40;0.30;;;;;;;10.71;100.00;95077.41;5091749;28;20424;-52
2022/04/05 09:33:42;;;;;;;0.40;0.30;;;;;;;11.15;100.00;95058.78;5091877;28;20428;-53
2022/04/05 09:36:13;;;;;;;0.30;0.30;;;;;;;11.29;100.00;95033.19;5091745;28;20443;-53
2022/04/05 09:38:43;;;;;;;0.60;0.60;;;;;;;12.19;96.54;95062.50;5091616;28;21067;-53
2022/04/05 09:41:17;;;;;;;0.40;0.40;;;;;;;12.89;92.35;95070.56;5091542;28;21083;-53
2022/04/05 09:43:58;;;;;;;0.40;0.30;;;;;;;12.06;97.38;95074.59;5092086;28;20493;-53
2022/04/05 09:46:30;;;;;;;0.60;0.60;;;;;;;11.52;100.00;95070.63;5091624;28;20467;-53
2022/04/05 09:49:04;;;;;;;0.70;0.70;;;;;;;11.19;100.00;95065.09;5091812;28;20531;-53
2022/04/05 09:51:41;;;;;;;0.60;0.30;;;;;;;11.26;100.00;95065.56;5091070;28;20432;-53
2022/04/05 09:54:19;;;;;;;0.40;0.33;;;;;;;11.67;100.00;95065.97;5091589;28;20917;-53
2022/04/05 09:56:48;;;;;;;0.50;0.50;;;;;;;11.80;99.56;95056.56;5091780;28;20864;-53
2022/04/05 09:59:19;;;;;;;0.47;0.27;;;;;;;12.26;96.57;94998.38;5091422;28;20456;-53
2022/04/05 10:01:52;;;;;;;0.70;0.40;;;;;;;12.67;99.51;95047.97;5091401;28;20481;-53
2022/04/05 10:04:20;;;;;;;0.40;0.40;;;;;;;12.44;96.99;95048.88;5091533;28;20567;-53
2022/04/05 10:06:49;;;;;;;0.50;0.40;;;;;;;12.42;99.78;95045.69;5091485;28;20421;-54
2022/04/05 10:09:18;;;;;;;0.40;0.30;;;;;;;12.48;100.00;95038.44;5091355;28;20892;-53
2022/04/05 10:11:47;;;;;;;0.77;0.77;;;;;;;12.19;100.00;95029.81;5091320;28;20439;-53
2022/04/05 10:14:20;;;;;;;0.30;0.30;;;;;;;12.86;94.25;95040.00;5091068;28;20527;-53
2022/04/05 10:16:53;;;;;;;0.47;0.47;;;;;;;12.46;92.65;95040.59;5091517;28;20482;-53
2022/04/05 10:19:23;;;;;;;0.90;0.90;;;;;;;12.66;99.33;95033.13;5091514;28;20493;-53
2022/04/05 10:21:51;;;;;;;0.40;0.30;;;;;;;12.08;95.98;95023.84;5091474;28;21098;-53
2022/04/05 10:24:21;;;;;;;3.43;0.70;;;;;;;11.95;98.50;95011.25;5091286;28;20476;-53
2022/04/05 10:26:51;;;;;;;0.60;0.40;;;;;;;13.17;93.28;95021.72;5091306;28;20592;-53
2022/04/05 10:29:20;;;;;;;0.30;0.20;;;;;;;13.39;94.05;95016.53;5091486;28;20436;-53
2022/04/05 10:31:57;;;;;;;0.73;0.73;;;;;;;13.11;98.95;95014.88;5091438;28;20463;-53
2022/04/05 10:34:29;;;;;;;0.40;0.37;;;;;;;13.46;86.33;95000.94;5091718;28;20787;-53
2022/04/05 10:37:17;;;;;;;0.50;0.40;;;;;;;13.86;83.58;95000.16;5094098;28;20483;-53
2022/04/05 10:40:12;;;;;;;1.20;1.20;;;;;;;13.61;82.20;95000.66;5095691;28;20497;-53
2022/04/05 10:42:42;;;;;;;0.83;0.83;;;;;;;13.52;86.81;95006.97;5095176;28;20424;-53
2022/04/05 10:45:13;;;;;;;0.30;0.30;;;;;;;13.17;85.57;94997.75;5095210;28;21020;-52
2022/04/05 10:48:00;;;;;;;6.83;1.13;;;;;;;13.53;85.68;94998.72;5095215;28;21168;-53
2022/04/05 10:51:12;;;;;;;1.23;1.23;;;;;;;13.04;86.99;94993.97;5094959;28;20428;-53
2022/04/05 10:54:17;;;;;;;0.50;0.30;;;;;;;13.21;98.29;94985.44;5095021;28;20440;-52
2022/04/05 10:56:30;;;;;;;1.17;1.07;;;;;;;12.74;96.05;94987.28;5094838;28;21001;-53
2022/04/05 10:59:19;;;;;;;0.57;0.53;;;;;;;13.31;90.77;94994.03;5094964;28;20460;-52
2022/04/05 11:01:47;;;;;;;0.53;0.53;;;;;;;13.43;84.30;94968.81;5094948;28;20446;-52
2022/04/05 11:04:38;;;;;;;1.40;0.70;;;;;;;13.65;83.18;94977.69;5094624;28;20545;-52
2022/04/05 11:07:11;;;;;;;0.40;0.40;;;;;;;14.14;75.28;94976.19;5091101;28;20432;-52
2022/04/05 11:09:46;;;;;;;1.50;0.30;;;;;;;13.65;81.53;94977.69;5094542;28;20514;-53
2022/04/05 11:12:20;;;;;;;0.50;0.50;;;;;;;13.81;84.83;94970.97;5094534;28;20412;-53
2022/04/05 11:14:52;;;;;;;0.40;0.37;;;;;;;14.39;73.98;94968.44;5094470;28;20456;-53
2022/04/05 11:17:23;;;;;;;0.50;0.50;;;;;;;14.96;70.11;94961.47;5094637;28;20499;-53
2022/04/05 11:19:55;;;;;;;0.77;0.73;;;;;;;14.92;69.17;94957.84;5093341;28;20461;-53
2022/04/05 11:22:30;;;;;;;0.50;0.50;;;;;;;14.95;66.87;94954.56;5094322;28;20938;-53
2022/04/05 11:25:03;;;;;;;1.20;1.00;;;;;;;14.48;71.92;94950.63;5094468;28;20495;-53
2022/04/05 11:27:33;;;;;;;0.57;0.57;;;;;;;15.13;70.58;94947.44;5094008;28;20425;-53
2022/04/05 11:30:39;;;;;;;0.80;0.80;;;;;;;15.12;69.68;94946.66;5094216;28;20469;-53
2022/04/05 11:33:23;;;;;;;1.20;1.10;;;;;;;15.63;65.69;94945.34;5094074;28;20921;-54
2022/04/05 11:35:57;;;;;;;0.50;0.40;;;;;;;16.22;70.41;94939.34;5094091;28;20439;-53
2022/04/05 11:38:28;;;;;;;1.13;0.67;;;;;;;16.31;61.19;94931.31;5094030;28;20424;-54
2022/04/05 11:41:00;;;;;;;0.40;0.40;;;;;;;16.47;55.92;94925.19;5093958;28;20447;-54
2022/04/05 11:43:30;;;;;;;0.50;0.50;;;;;;;17.05;52.35;94921.97;5094259;28;20460;-56
2022/04/05 11:46:00;;;;;;;1.27;1.17;;;;;;;16.70;56.79;94917.00;5093858;28;20474;-57
2022/04/05 11:48:29;;;;;;;0.47;0.47;;;;;;;18.38;49.24;94901.63;5093266;28;20519;-58